createdAt,value
2019-05-07T00:02:09.124Z,3.30
2019-05-07T00:04:38.675Z,3.10
2019-05-07T00:07:08.421Z,3.10
2019-05-07T00:09:36.940Z,3.10
2019-05-07T00:12:05.544Z,3.10
2019-05-07T00:14:34.628Z,3.00
2019-05-07T00:17:04.581Z,3.00
2019-05-07T00:19:33.191Z,3.10
2019-05-07T00:22:02.499Z,3.10
2019-05-07T00:24:33.062Z,3.00
2019-05-07T00:27:02.871Z,3.00
2019-05-07T00:29:32.254Z,3.00
2019-05-07T00:32:02.989Z,3.00
2019-05-07T00:34:33.611Z,2.90
2019-05-07T00:37:07.208Z,2.80
2019-05-07T00:39:37.399Z,2.80
2019-05-07T00:42:13.336Z,2.70
2019-05-07T00:44:54.924Z,2.80
2019-05-07T00:47:23.381Z,2.90
2019-05-07T00:49:52.326Z,3.10
2019-05-07T00:52:22.591Z,3.00
2019-05-07T00:54:53.113Z,2.80
2019-05-07T00:57:22.914Z,2.70
2019-05-07T00:59:52.489Z,2.70
2019-05-07T01:02:23.021Z,2.70
2019-05-07T01:04:53.186Z,2.50
2019-05-07T01:07:22.889Z,2.50
2019-05-07T01:09:52.430Z,2.50
2019-05-07T01:12:22.256Z,2.50
2019-05-07T01:14:52.791Z,2.50
2019-05-07T01:17:22.719Z,2.50
2019-05-07T01:19:53.303Z,2.40
2019-05-07T01:22:22.226Z,2.40
2019-05-07T01:24:52.429Z,2.30
2019-05-07T01:27:22.634Z,2.20
2019-05-07T01:29:52.782Z,2.10
2019-05-07T01:32:24.109Z,2.20
2019-05-07T01:34:57.098Z,2.30
2019-05-07T01:37:25.728Z,2.30
2019-05-07T01:39:54.155Z,2.30
2019-05-07T01:42:22.820Z,2.30
2019-05-07T01:44:52.830Z,2.30
2019-05-07T01:47:23.782Z,2.20
2019-05-07T01:49:55.128Z,2.50
2019-05-07T01:52:22.799Z,2.60
2019-05-07T01:54:52.260Z,2.50
2019-05-07T01:57:22.952Z,2.50
2019-05-07T01:59:52.777Z,2.40
2019-05-07T02:02:23.035Z,2.40
2019-05-07T02:04:53.160Z,2.20
2019-05-07T02:07:23.458Z,2.00
2019-05-07T02:10:02.973Z,1.90
2019-05-07T02:12:36.447Z,1.80
2019-05-07T02:15:07.212Z,1.70
2019-05-07T02:17:35.858Z,1.70
2019-05-07T02:20:06.219Z,1.70
2019-05-07T02:22:34.625Z,1.70
2019-05-07T02:25:03.451Z,1.70
2019-05-07T02:27:32.804Z,1.70
2019-05-07T02:30:04.097Z,3.10
2019-05-07T02:32:33.353Z,1.80
2019-05-07T02:35:03.951Z,2.00
2019-05-07T02:37:47.061Z,2.20
2019-05-07T02:40:13.954Z,2.00
2019-05-07T02:42:44.174Z,2.00
2019-05-07T02:45:13.619Z,1.80
2019-05-07T02:47:43.688Z,1.80
2019-05-07T02:50:26.457Z,1.70
2019-05-07T02:53:13.320Z,1.70
2019-05-07T02:55:46.054Z,1.80
2019-05-07T02:58:14.689Z,1.70
2019-05-07T03:00:43.674Z,1.60
2019-05-07T03:03:13.715Z,1.60
2019-05-07T03:05:43.336Z,1.50
2019-05-07T03:08:13.463Z,1.40
2019-05-07T03:10:43.400Z,1.40
2019-05-07T03:13:13.796Z,1.30
2019-05-07T03:15:43.536Z,1.20
2019-05-07T03:18:13.776Z,1.20
2019-05-07T03:20:53.649Z,1.30
2019-05-07T03:23:24.054Z,1.50
2019-05-07T03:26:13.396Z,1.70
2019-05-07T03:29:03.613Z,1.60
2019-05-07T03:31:46.619Z,1.40
2019-05-07T03:34:25.116Z,1.30
2019-05-07T03:36:56.608Z,1.20
2019-05-07T03:39:24.037Z,1.20
2019-05-07T03:41:53.267Z,1.10
2019-05-07T03:44:24.036Z,1.10
2019-05-07T03:47:01.513Z,1.20
2019-05-07T03:49:27.768Z,1.30
2019-05-07T03:51:56.947Z,1.30
2019-05-07T03:54:25.415Z,1.30
2019-05-07T03:56:54.065Z,1.40
2019-05-07T03:59:23.314Z,1.50
2019-05-07T04:01:53.879Z,1.50
2019-05-07T04:04:23.145Z,1.60
2019-05-07T04:06:53.730Z,1.60
2019-05-07T04:09:24.182Z,1.70
2019-05-07T04:11:53.082Z,1.60
2019-05-07T04:14:23.086Z,1.60
2019-05-07T04:16:53.595Z,1.60
2019-05-07T04:19:23.550Z,1.60
2019-05-07T04:21:53.380Z,1.50
2019-05-07T04:24:24.362Z,1.50
2019-05-07T04:26:54.664Z,1.50
2019-05-07T04:31:53.239Z,1.60
2019-05-07T04:34:40.312Z,1.60
2019-05-07T04:37:08.944Z,1.70
2019-05-07T04:39:37.577Z,1.80
2019-05-07T04:42:06.003Z,2.10
2019-05-07T04:44:34.639Z,2.20
2019-05-07T04:47:04.312Z,2.30
2019-05-07T04:49:33.410Z,2.50
2019-05-07T04:52:06.123Z,2.50
2019-05-07T04:54:34.757Z,2.60
2019-05-07T04:57:03.850Z,2.60
2019-05-07T04:59:33.019Z,3.00
2019-05-07T05:02:04.195Z,3.00
2019-05-07T05:04:34.846Z,3.00
2019-05-07T05:07:03.539Z,3.20
2019-05-07T05:09:32.876Z,3.20
2019-05-07T05:12:02.659Z,3.20
2019-05-07T05:14:33.804Z,3.50
2019-05-07T05:17:02.060Z,3.60
2019-05-07T05:19:32.301Z,3.70
2019-05-07T05:22:02.471Z,3.80
2019-05-07T05:24:35.572Z,4.00
2019-05-07T05:27:03.972Z,4.20
2019-05-07T05:29:34.278Z,4.40
2019-05-07T05:32:03.868Z,4.50
2019-05-07T05:34:32.996Z,4.60
2019-05-07T05:37:02.476Z,4.80
2019-05-07T05:39:31.997Z,5.00
2019-05-07T05:42:02.530Z,5.20
2019-05-07T05:44:32.887Z,5.60
2019-05-07T05:47:02.424Z,5.50
2019-05-07T05:49:32.168Z,5.50
2019-05-07T05:52:14.558Z,5.50
2019-05-07T05:54:47.000Z,5.60
2019-05-07T05:57:23.228Z,5.70
2019-05-07T05:59:55.499Z,5.70
2019-05-07T06:02:43.919Z,5.70
2019-05-07T06:05:33.888Z,6.10
2019-05-07T06:08:03.712Z,6.00
2019-05-07T06:10:33.839Z,6.30
2019-05-07T06:13:09.630Z,6.50
2019-05-07T06:15:56.090Z,6.80
2019-05-07T06:18:34.803Z,7.10
2019-05-07T06:21:13.580Z,7.20
2019-05-07T06:23:43.952Z,7.20
2019-05-07T06:26:12.769Z,7.20
2019-05-07T06:28:42.541Z,7.20
2019-05-07T06:31:12.657Z,7.70
2019-05-07T06:33:42.979Z,8.10
2019-05-07T06:36:12.500Z,8.10
2019-05-07T06:39:01.949Z,8.10
2019-05-07T06:41:35.058Z,8.40
2019-05-07T06:44:05.270Z,8.70
2019-05-07T06:46:33.667Z,8.80
2019-05-07T06:49:02.280Z,9.00
2019-05-07T06:51:32.749Z,9.30
2019-05-07T06:54:02.754Z,9.30
2019-05-07T06:56:32.543Z,9.50
2019-05-07T06:59:02.872Z,9.50
2019-05-07T07:01:39.217Z,9.40
2019-05-07T07:04:12.950Z,9.80
2019-05-07T07:06:49.008Z,10.10
2019-05-07T07:09:25.273Z,9.80
2019-05-07T07:11:55.629Z,9.80
2019-05-07T07:14:24.276Z,9.60
2019-05-07T07:16:53.700Z,9.90
2019-05-07T07:19:23.248Z,10.00
2019-05-07T07:21:52.763Z,10.20
2019-05-07T07:24:22.223Z,10.60
2019-05-07T07:26:52.745Z,10.40
2019-05-07T07:29:22.504Z,10.60
2019-05-07T07:31:55.517Z,10.50
2019-05-07T07:34:24.933Z,11.00
2019-05-07T07:37:04.989Z,11.40
2019-05-07T07:39:25.425Z,11.40
2019-05-07T07:41:55.466Z,11.30
2019-05-07T07:44:24.113Z,10.90
2019-05-07T07:46:53.216Z,11.40
2019-05-07T07:49:23.542Z,11.70
2019-05-07T07:51:52.704Z,12.00
2019-05-07T07:54:22.632Z,11.70
2019-05-07T07:57:07.752Z,11.90
2019-05-07T07:59:55.741Z,11.60
2019-05-07T08:02:26.030Z,11.70
2019-05-07T08:04:54.423Z,12.00
2019-05-07T08:07:23.076Z,11.90
2019-05-07T08:09:52.037Z,12.00
2019-05-07T08:12:22.112Z,12.10
2019-05-07T08:14:51.919Z,12.30
2019-05-07T08:17:22.440Z,11.80
2019-05-07T08:19:51.975Z,12.00
2019-05-07T08:22:22.625Z,12.00
2019-05-07T08:24:52.009Z,12.20
2019-05-07T08:27:22.207Z,12.50
2019-05-07T08:29:52.466Z,13.30
2019-05-07T08:32:22.966Z,13.60
2019-05-07T08:34:55.739Z,13.80
2019-05-07T08:37:24.553Z,14.30
2019-05-07T08:39:53.262Z,14.50
2019-05-07T08:42:22.835Z,14.60
2019-05-07T08:44:53.299Z,15.00
2019-05-07T08:47:39.845Z,14.80
2019-05-07T08:50:08.488Z,14.90
2019-05-07T08:52:36.891Z,15.40
2019-05-07T08:55:07.657Z,14.80
2019-05-07T08:57:36.425Z,14.40
2019-05-07T09:00:07.252Z,14.40
2019-05-07T09:02:35.680Z,15.40
2019-05-07T09:05:09.033Z,15.50
2019-05-07T09:07:36.312Z,16.40
2019-05-07T09:10:06.914Z,16.80
2019-05-07T09:12:35.565Z,17.50
2019-05-07T09:15:06.000Z,17.80
2019-05-07T09:17:34.666Z,17.20
2019-05-07T09:20:03.743Z,17.40
2019-05-07T09:22:32.452Z,18.20
2019-05-07T09:25:03.150Z,17.40
2019-05-07T09:27:42.351Z,17.50
2019-05-07T09:30:22.154Z,17.40
2019-05-07T09:32:52.464Z,18.90
2019-05-07T09:35:25.278Z,20.50
2019-05-07T09:37:54.025Z,20.50
2019-05-07T09:40:22.677Z,21.90
2019-05-07T09:42:52.554Z,21.50
2019-05-07T09:45:22.496Z,21.70
2019-05-07T09:47:52.273Z,21.70
2019-05-07T09:50:22.028Z,21.80
2019-05-07T09:52:51.798Z,21.10
2019-05-07T09:55:20.673Z,20.30
2019-05-07T09:57:52.796Z,20.60
2019-05-07T10:00:22.594Z,21.30
2019-05-07T10:02:52.811Z,21.70
2019-05-07T10:05:21.860Z,21.80
2019-05-07T10:07:52.481Z,21.40
2019-05-07T10:10:22.286Z,21.50
2019-05-07T10:12:52.761Z,21.20
2019-05-07T10:15:22.551Z,21.80
2019-05-07T10:18:04.611Z,22.30
2019-05-07T10:20:33.956Z,21.60
2019-05-07T10:23:02.752Z,21.50
2019-05-07T10:25:39.949Z,20.60
2019-05-07T10:28:08.648Z,21.60
2019-05-07T10:30:37.193Z,22.90
2019-05-07T10:33:05.697Z,22.10
2019-05-07T10:35:34.462Z,20.10
2019-05-07T10:38:03.132Z,19.50
2019-05-07T10:40:32.742Z,18.40
2019-05-07T10:43:01.553Z,18.20
2019-05-07T10:45:34.516Z,18.00
2019-05-07T10:48:11.717Z,17.30
2019-05-07T10:50:44.877Z,16.20
2019-05-07T10:53:13.292Z,15.60
2019-05-07T10:55:43.890Z,15.40
2019-05-07T10:58:12.148Z,15.60
2019-05-07T11:00:42.105Z,16.20
2019-05-07T11:03:12.647Z,16.50
2019-05-07T11:05:41.959Z,16.70
2019-05-07T11:08:10.549Z,16.80
2019-05-07T11:10:41.726Z,16.90
2019-05-07T11:13:09.618Z,17.40
2019-05-07T11:15:38.731Z,17.70
2019-05-07T11:18:09.029Z,17.80
2019-05-07T11:20:48.970Z,18.30
2019-05-07T11:23:08.047Z,18.40
2019-05-07T11:25:36.695Z,18.70
2019-05-07T11:28:05.486Z,18.70
2019-05-07T11:30:34.451Z,19.20
2019-05-07T11:33:03.109Z,18.80
2019-05-07T11:35:32.057Z,18.70
2019-05-07T11:38:02.616Z,19.50
2019-05-07T11:40:32.149Z,19.70
2019-05-07T11:43:18.577Z,19.10
2019-05-07T11:45:54.061Z,18.40
2019-05-07T11:48:22.989Z,17.80
2019-05-07T11:51:04.315Z,17.50
2019-05-07T11:53:33.584Z,18.20
2019-05-07T11:56:02.684Z,18.20
2019-05-07T11:58:32.561Z,19.20
2019-05-07T12:01:04.011Z,19.90
2019-05-07T12:03:32.613Z,21.40
2019-05-07T12:06:02.053Z,22.80
2019-05-07T12:08:38.408Z,22.90
2019-05-07T12:11:02.423Z,24.40
2019-05-07T12:13:32.511Z,25.50
2019-05-07T12:16:02.985Z,25.20
2019-05-07T12:18:31.904Z,25.00
2019-05-07T12:21:03.769Z,26.10
2019-05-07T12:23:33.239Z,26.20
2019-05-07T12:26:02.367Z,26.30
2019-05-07T12:28:32.881Z,27.00
2019-05-07T12:31:17.954Z,26.40
2019-05-07T12:33:53.932Z,25.70
2019-05-07T12:36:22.890Z,27.10
2019-05-07T12:38:53.201Z,24.40
2019-05-07T12:41:33.149Z,23.70
2019-05-07T12:44:03.215Z,21.00
2019-05-07T12:46:33.451Z,19.60
2019-05-07T12:49:03.114Z,18.70
2019-05-07T12:51:37.467Z,18.90
2019-05-07T12:54:15.007Z,19.00
2019-05-07T12:56:43.412Z,19.00
2019-05-07T12:59:12.807Z,19.20
2019-05-07T13:01:59.272Z,18.80
2019-05-07T13:04:32.512Z,18.20
2019-05-07T13:07:02.948Z,18.40
2019-05-07T13:09:32.515Z,17.80
2019-05-07T13:12:03.060Z,17.90
2019-05-07T13:14:31.332Z,17.80
2019-05-07T13:16:59.828Z,17.40
2019-05-07T13:19:28.467Z,17.40
2019-05-07T13:21:57.108Z,17.40
2019-05-07T13:24:26.519Z,17.60
2019-05-07T13:26:54.923Z,17.80
2019-05-07T13:29:23.328Z,17.70
2019-05-07T13:31:54.688Z,17.70
2019-05-07T13:34:23.577Z,17.80
2019-05-07T13:36:54.588Z,18.10
2019-05-07T13:39:28.369Z,18.00
2019-05-07T13:42:12.540Z,19.20
2019-05-07T13:44:45.620Z,21.50
2019-05-07T13:47:25.089Z,24.30
2019-05-07T13:49:54.209Z,25.80
2019-05-07T13:52:25.089Z,25.50
2019-05-07T13:54:54.566Z,24.40
2019-05-07T13:57:23.691Z,22.70
2019-05-07T13:59:53.216Z,21.60
2019-05-07T14:02:23.721Z,22.00
2019-05-07T14:04:52.706Z,21.70
2019-05-07T14:07:21.854Z,20.60
2019-05-07T14:09:52.733Z,20.20
2019-05-07T14:12:22.961Z,20.00
2019-05-07T14:14:53.075Z,20.20
2019-05-07T14:17:22.085Z,20.00
2019-05-07T14:19:52.884Z,20.20
2019-05-07T14:22:22.562Z,21.30
2019-05-07T14:24:53.022Z,21.30
2019-05-07T14:27:21.638Z,22.40
2019-05-07T14:29:51.989Z,23.60
2019-05-07T14:32:33.905Z,23.90
2019-05-07T14:35:04.010Z,24.50
2019-05-07T14:37:36.503Z,25.70
2019-05-07T14:40:06.849Z,26.50
2019-05-07T14:42:38.427Z,26.40
2019-05-07T14:45:07.269Z,27.40
2019-05-07T14:47:35.960Z,28.70
2019-05-07T14:50:06.111Z,27.80
2019-05-07T14:52:36.309Z,26.10
2019-05-07T14:55:06.684Z,24.70
2019-05-07T14:57:36.379Z,24.20
2019-05-07T15:00:12.037Z,24.20
2019-05-07T15:02:42.120Z,24.60
2019-05-07T15:05:12.061Z,26.00
2019-05-07T15:07:40.951Z,26.20
2019-05-07T15:10:09.972Z,26.30
2019-05-07T15:12:38.620Z,25.30
2019-05-07T15:15:07.826Z,26.10
2019-05-07T15:17:41.985Z,25.80
2019-05-07T15:20:10.504Z,25.50
2019-05-07T15:22:47.155Z,26.30
2019-05-07T15:25:13.691Z,25.60
2019-05-07T15:27:43.369Z,25.20
2019-05-07T15:30:12.644Z,24.70
2019-05-07T15:32:42.818Z,25.90
2019-05-07T15:35:12.554Z,27.30
2019-05-07T15:37:42.749Z,26.80
2019-05-07T15:40:11.973Z,24.90
2019-05-07T15:42:42.122Z,24.20
2019-05-07T15:45:12.593Z,23.60
2019-05-07T15:47:52.225Z,23.70
2019-05-07T15:50:23.038Z,24.40
2019-05-07T15:52:58.408Z,22.70
2019-05-07T15:55:23.734Z,24.60
2019-05-07T15:57:52.712Z,25.50
2019-05-07T16:00:23.334Z,26.00
2019-05-07T16:02:59.695Z,26.30
2019-05-07T16:05:28.339Z,26.20
2019-05-07T16:07:56.980Z,27.10
2019-05-07T16:10:25.880Z,27.20
2019-05-07T16:12:54.464Z,26.40
2019-05-07T16:15:22.867Z,24.90
2019-05-07T16:17:55.876Z,24.70
2019-05-07T16:20:24.514Z,24.40
2019-05-07T16:22:55.058Z,24.70
2019-05-07T16:25:23.847Z,25.00
2019-05-07T16:27:52.758Z,25.70
2019-05-07T16:30:22.801Z,26.80
2019-05-07T16:32:55.246Z,25.40
2019-05-07T16:35:22.782Z,25.50
2019-05-07T16:37:52.174Z,25.20
2019-05-07T16:40:22.997Z,24.10
2019-05-07T16:42:52.437Z,23.00
2019-05-07T16:45:21.136Z,22.70
2019-05-07T16:47:51.978Z,22.20
2019-05-07T16:50:22.378Z,21.70
2019-05-07T16:52:52.463Z,20.50
2019-05-07T16:55:23.272Z,19.40
2019-05-07T16:58:02.221Z,19.60
2019-05-07T17:00:35.537Z,19.30
2019-05-07T17:03:06.515Z,19.20
2019-05-07T17:05:35.231Z,19.10
2019-05-07T17:08:05.877Z,19.10
2019-05-07T17:10:34.531Z,19.30
2019-05-07T17:13:03.188Z,19.30
2019-05-07T17:15:33.257Z,19.00
2019-05-07T17:18:02.801Z,19.20
2019-05-07T17:20:32.702Z,18.60
2019-05-07T17:23:03.058Z,18.10
2019-05-07T17:25:37.309Z,17.90
2019-05-07T17:28:08.826Z,17.30
2019-05-07T17:30:37.929Z,16.80
2019-05-07T17:33:08.187Z,16.60
2019-05-07T17:35:36.769Z,16.50
2019-05-07T17:38:09.635Z,16.30
2019-05-07T17:40:35.295Z,15.90
2019-05-07T17:43:03.857Z,15.90
2019-05-07T17:45:32.882Z,15.80
2019-05-07T17:48:03.261Z,15.50
2019-05-07T17:50:49.673Z,15.30
2019-05-07T17:53:18.087Z,15.00
2019-05-07T17:55:46.730Z,14.70
2019-05-07T17:58:15.217Z,14.60
2019-05-07T18:00:46.233Z,14.40
2019-05-07T18:03:32.784Z,14.20
2019-05-07T18:06:02.400Z,14.00
2019-05-07T18:08:32.442Z,13.80
2019-05-07T18:11:02.350Z,13.60
2019-05-07T18:13:32.276Z,13.40
2019-05-07T18:16:03.128Z,13.20
2019-05-07T18:18:32.736Z,13.10
2019-05-07T18:21:02.272Z,12.80
2019-05-07T18:23:32.175Z,12.50
2019-05-07T18:26:01.035Z,12.40
2019-05-07T18:28:29.512Z,12.30
2019-05-07T18:30:58.595Z,12.10
2019-05-07T18:33:33.454Z,12.00
2019-05-07T18:36:02.807Z,11.80
2019-05-07T18:38:32.959Z,11.60
2019-05-07T18:41:02.681Z,11.60
2019-05-07T18:43:33.162Z,11.30
2019-05-07T18:46:02.324Z,11.20
2019-05-07T18:48:30.936Z,11.00
2019-05-07T18:50:59.583Z,10.80
2019-05-07T18:53:27.986Z,10.70
2019-05-07T18:55:56.576Z,10.60
2019-05-07T18:58:24.976Z,10.50
2019-05-07T19:00:55.324Z,10.40
2019-05-07T19:03:25.367Z,10.30
2019-05-07T19:05:54.766Z,10.20
2019-05-07T19:08:23.218Z,10.10
2019-05-07T19:10:52.199Z,10.10
2019-05-07T19:13:22.167Z,10.00
2019-05-07T19:15:53.018Z,10.00
2019-05-07T19:18:22.842Z,9.90
2019-05-07T19:20:52.947Z,10.00
2019-05-07T19:23:22.399Z,9.90
2019-05-07T19:25:52.323Z,9.80
2019-05-07T19:28:22.482Z,9.80
2019-05-07T19:30:52.767Z,9.70
2019-05-07T19:33:26.457Z,9.60
2019-05-07T19:35:52.799Z,9.50
2019-05-07T19:38:21.374Z,9.50
2019-05-07T19:40:50.057Z,9.40
2019-05-07T19:43:18.717Z,9.30
2019-05-07T19:45:47.363Z,9.30
2019-05-07T19:48:16.021Z,9.40
2019-05-07T19:50:44.665Z,9.30
2019-05-07T19:53:13.052Z,9.30
2019-05-07T19:56:01.776Z,9.30
2019-05-07T19:58:29.483Z,9.30
2019-05-07T20:00:57.880Z,9.20
2019-05-07T20:03:26.383Z,9.10
2019-05-07T20:05:55.067Z,9.10
2019-05-07T20:08:23.558Z,9.10
2019-05-07T20:10:56.317Z,9.10
2019-05-07T20:13:27.248Z,9.00
2019-05-07T20:15:59.437Z,8.80
2019-05-07T20:18:28.260Z,8.70
2019-05-07T20:20:56.893Z,8.60
2019-05-07T20:23:25.310Z,8.60
2019-05-07T20:25:54.036Z,8.50
2019-05-07T20:28:22.442Z,8.50
2019-05-07T20:30:52.674Z,8.50
2019-05-07T20:33:21.964Z,8.40
2019-05-07T20:35:52.690Z,8.40
2019-05-07T20:38:21.040Z,8.20
2019-05-07T20:40:52.031Z,8.20
2019-05-07T20:43:19.973Z,8.10
2019-05-07T20:45:48.373Z,8.00
2019-05-07T20:48:16.795Z,8.00
2019-05-07T20:50:45.192Z,8.00
2019-05-07T20:53:13.851Z,8.00
2019-05-07T20:55:49.515Z,7.90
2019-05-07T20:58:18.245Z,7.90
2019-05-07T21:00:46.745Z,7.80
2019-05-07T21:03:23.423Z,7.80
2019-05-07T21:05:52.919Z,7.80
2019-05-07T21:08:22.768Z,7.80
2019-05-07T21:10:53.500Z,7.80
2019-05-07T21:13:30.850Z,7.80
2019-05-07T21:15:52.750Z,7.80
2019-05-07T21:18:23.268Z,7.80
2019-05-07T21:20:53.009Z,7.70
2019-05-07T21:23:23.014Z,7.70
2019-05-07T21:25:52.844Z,7.70
2019-05-07T21:28:22.275Z,7.70
2019-05-07T21:30:52.190Z,7.60
2019-05-07T21:33:22.811Z,7.60
2019-05-07T21:35:52.267Z,7.60
2019-05-07T21:38:22.282Z,7.60
2019-05-07T21:40:51.406Z,7.70
2019-05-07T21:43:21.918Z,7.70
2019-05-07T21:45:50.164Z,8.00
2019-05-07T21:48:18.915Z,8.10
2019-05-07T21:50:47.552Z,8.40
2019-05-07T21:53:17.815Z,8.50
2019-05-07T21:55:58.834Z,8.80
2019-05-07T21:58:38.309Z,9.00
2019-05-07T22:01:12.503Z,9.10
2019-05-07T22:03:43.280Z,9.10
2019-05-07T22:06:12.913Z,9.20
2019-05-07T22:08:41.619Z,9.40
2019-05-07T22:11:12.381Z,9.30
2019-05-07T22:13:43.250Z,9.30
2019-05-07T22:16:13.087Z,9.30
2019-05-07T22:18:42.662Z,9.20
2019-05-07T22:21:12.462Z,9.20
2019-05-07T22:23:42.794Z,9.20
2019-05-07T22:26:20.345Z,9.20
2019-05-07T22:28:42.186Z,9.20
2019-05-07T22:31:15.544Z,9.10
2019-05-07T22:33:54.668Z,9.10
2019-05-07T22:36:23.089Z,9.20
2019-05-07T22:38:52.601Z,9.10
2019-05-07T22:41:22.466Z,8.90
2019-05-07T22:43:51.191Z,8.80
2019-05-07T22:46:22.053Z,8.70
2019-05-07T22:48:49.705Z,8.60
2019-05-07T22:51:18.288Z,8.60
2019-05-07T22:53:46.698Z,8.60
2019-05-07T22:56:15.097Z,8.60
2019-05-07T22:58:57.072Z,8.70
2019-05-07T23:01:25.733Z,8.70
2019-05-07T23:03:54.372Z,8.70
2019-05-07T23:06:23.264Z,8.70
2019-05-07T23:08:52.892Z,8.70
2019-05-07T23:11:22.906Z,8.70
2019-05-07T23:13:52.428Z,8.70
2019-05-07T23:16:23.107Z,8.60
2019-05-07T23:18:51.717Z,8.60
2019-05-07T23:21:24.405Z,8.40
2019-05-07T23:23:52.772Z,8.40
2019-05-07T23:26:23.290Z,8.40
2019-05-07T23:28:51.983Z,8.20
2019-05-07T23:31:22.681Z,8.20
2019-05-07T23:33:52.357Z,8.10
2019-05-07T23:36:22.478Z,8.10
2019-05-07T23:38:52.132Z,8.00
2019-05-07T23:41:28.399Z,7.90
2019-05-07T23:44:16.283Z,7.80
2019-05-07T23:46:45.146Z,7.80
2019-05-07T23:49:13.887Z,7.80
2019-05-07T23:51:42.686Z,7.80
2019-05-07T23:54:12.112Z,7.80
2019-05-07T23:56:42.792Z,7.80
2019-05-07T23:59:12.767Z,7.80
